Time;durP1;ratioP1;P1;durP2;ratioP2;P2;SDS_P1;SDS_P2;PMS_P1;PMS_P2;Temp;Humidity;BMP_temperature;BMP_pressure;BME280_temperature;BME280_humidity;BME280_pressure;Samples;Min_cycle;Max_cycle;Signal;HPM_P1;HPM_P2
2021/09/03 00:02:25;;;;;;;;;;;;;;;15.15;73.57;102383.22;5073139;28;20352;-35
2021/09/03 00:04:50;;;;;;;;;;;;;;;15.13;74.10;102388.91;5072465;28;19909;-35
2021/09/03 00:07:16;;;;;;;;;;;;;;;15.11;74.07;102382.00;5072835;28;20394;-35
2021/09/03 00:09:41;;;;;;;;;;;;;;;15.09;75.45;102386.84;5072807;28;19919;-35
2021/09/03 00:12:07;;;;;;;;;;;;;;;15.05;74.35;102382.88;5074795;28;19916;-35
2021/09/03 00:14:32;;;;;;;;;;;;;;;15.01;74.40;102385.22;5076136;28;20018;-35
2021/09/03 00:16:58;;;;;;;;;;;;;;;14.97;74.39;102389.44;5076570;28;19924;-35
2021/09/03 00:19:23;;;;;;;;;;;;;;;14.96;74.38;102381.50;5076332;28;19908;-35
2021/09/03 00:21:49;;;;;;;;;;;;;;;14.98;73.93;102384.81;5076330;28;19947;-35
2021/09/03 00:24:14;;;;;;;;;;;;;;;14.96;74.25;102386.94;5076735;28;20011;-35
2021/09/03 00:26:39;;;;;;;;;;;;;;;14.92;74.75;102384.66;5076575;28;19915;-35
2021/09/03 00:29:04;;;;;;;;;;;;;;;14.91;74.59;102379.44;5076044;28;19954;-35
2021/09/03 00:31:30;;;;;;;;;;;;;;;14.89;75.34;102378.84;5076097;28;20348;-35
2021/09/03 00:33:55;;;;;;;;;;;;;;;14.87;75.77;102375.50;5076107;28;19908;-35
2021/09/03 00:36:20;;;;;;;;;;;;;;;14.84;75.17;102371.34;5076215;28;20304;-35
2021/09/03 00:38:45;;;;;;;;;;;;;;;14.82;74.67;102368.00;5076218;28;19926;-35
2021/09/03 00:41:10;;;;;;;;;;;;;;;14.78;78.37;102365.94;5075967;28;19988;-35
2021/09/03 00:43:37;;;;;;;;;;;;;;;14.73;76.53;102357.59;5075607;28;19949;-35
2021/09/03 00:46:02;;;;;;;;;;;;;;;14.72;76.42;102361.38;5075542;28;19916;-35
2021/09/03 00:48:27;;;;;;;;;;;;;;;14.70;78.64;102358.06;5076291;28;20006;-35
2021/09/03 00:50:53;;;;;;;;;;;;;;;14.60;78.73;102356.66;5075466;28;19908;-35
2021/09/03 00:53:18;;;;;;;;;;;;;;;14.57;78.37;102359.81;5075887;28;19964;-35
2021/09/03 00:55:44;;;;;;;;;;;;;;;14.57;77.31;102357.09;5075637;28;19915;-35
2021/09/03 00:58:09;;;;;;;;;;;;;;;14.58;77.63;102361.47;5075648;28;20331;-35
2021/09/03 01:00:35;;;;;;;;;;;;;;;14.61;77.48;102352.88;5075542;28;19914;-35
2021/09/03 01:03:00;;;;;;;;;;;;;;;14.62;76.65;102354.53;5075229;28;19950;-35
2021/09/03 01:05:25;;;;;;;;;;;;;;;14.62;77.39;102346.38;5075231;28;19949;-35
2021/09/03 01:07:51;;;;;;;;;;;;;;;14.63;77.10;102342.59;5076025;28;19946;-35
2021/09/03 01:10:20;;;;;;;;;;;;;;;14.59;77.93;102344.09;5075515;28;19961;-35
2021/09/03 01:12:46;;;;;;;;;;;;;;;14.55;77.50;102339.31;5075597;28;19912;-35
2021/09/03 01:15:12;;;;;;;;;;;;;;;14.56;76.99;102338.25;5075041;28;19919;-35
2021/09/03 01:17:39;;;;;;;;;;;;;;;14.55;76.53;102337.44;5075232;28;19909;-35
2021/09/03 01:20:05;;;;;;;;;;;;;;;14.53;77.76;102333.25;5075908;28;19909;-35
2021/09/03 01:22:30;;;;;;;;;;;;;;;14.51;77.38;102330.75;5075431;28;20355;-35
2021/09/03 01:24:56;;;;;;;;;;;;;;;14.49;77.43;102338.28;5075619;28;19908;-35
2021/09/03 01:27:21;;;;;;;;;;;;;;;14.48;77.47;102333.91;5075078;28;19919;-35
2021/09/03 01:29:46;;;;;;;;;;;;;;;14.48;77.06;102325.75;5075011;28;19915;-35
2021/09/03 01:32:11;;;;;;;;;;;;;;;14.47;76.97;102326.78;5075062;28;19919;-35
2021/09/03 01:34:37;;;;;;;;;;;;;;;14.47;77.79;102334.09;5074869;28;19909;-35
2021/09/03 01:37:02;;;;;;;;;;;;;;;14.45;77.33;102326.19;5074873;28;19909;-35
2021/09/03 01:39:27;;;;;;;;;;;;;;;14.45;77.67;102326.19;5075132;28;19915;-35
2021/09/03 01:41:52;;;;;;;;;;;;;;;14.43;78.07;102323.66;5075267;28;19927;-35
2021/09/03 01:44:18;;;;;;;;;;;;;;;14.42;77.48;102321.16;5075210;28;19915;-35
2021/09/03 01:46:43;;;;;;;;;;;;;;;14.40;77.47;102315.94;5074901;28;19908;-35
2021/09/03 01:49:08;;;;;;;;;;;;;;;14.36;78.11;102316.59;5074670;28;19908;-35
2021/09/03 01:51:33;;;;;;;;;;;;;;;14.37;77.45;102310.09;5075128;28;19915;-36
2021/09/03 01:53:59;;;;;;;;;;;;;;;14.38;77.36;102309.03;5075236;28;19970;-35
2021/09/03 01:56:25;;;;;;;;;;;;;;;14.35;77.60;102304.91;5074380;28;19952;-35
2021/09/03 01:58:50;;;;;;;;;;;;;;;14.34;77.60;102302.38;5074297;28;19993;-35
2021/09/03 02:01:15;;;;;;;;;;;;;;;14.33;77.29;102306.16;5074082;28;19916;-35
2021/09/03 02:03:40;;;;;;;;;;;;;;;14.32;76.93;102304.50;5074292;28;19909;-35
2021/09/03 02:06:05;;;;;;;;;;;;;;;14.30;77.38;102307.44;5074322;28;19909;-35
2021/09/03 02:08:31;;;;;;;;;;;;;;;14.28;77.09;102303.25;5074910;28;19936;-35
2021/09/03 02:10:56;;;;;;;;;;;;;;;14.27;77.06;102312.47;5074706;28;19912;-35
2021/09/03 02:13:22;;;;;;;;;;;;;;;14.24;77.69;102308.28;5075031;28;20336;-35
2021/09/03 02:15:47;;;;;;;;;;;;;;;14.21;77.43;102308.75;5074040;28;19908;-35
2021/09/03 02:18:13;;;;;;;;;;;;;;;14.19;78.01;102305.41;5073772;28;20057;-35
2021/09/03 02:20:38;;;;;;;;;;;;;;;14.18;77.77;102303.75;5074007;28;19923;-35
2021/09/03 02:23:03;;;;;;;;;;;;;;;14.16;77.58;102301.25;5073951;28;20008;-35
2021/09/03 02:25:28;;;;;;;;;;;;;;;14.13;77.77;102298.97;5074502;28;19922;-35
2021/09/03 02:27:54;;;;;;;;;;;;;;;14.11;77.43;102300.25;5074001;28;19994;-35
2021/09/03 02:30:19;;;;;;;;;;;;;;;14.09;77.50;102300.44;5074195;28;19998;-35
2021/09/03 02:32:44;;;;;;;;;;;;;;;14.08;77.40;102304.22;5074345;28;19946;-35
2021/09/03 02:35:09;;;;;;;;;;;;;;;14.07;77.25;102297.13;5073106;28;20417;-35
2021/09/03 02:37:34;;;;;;;;;;;;;;;14.05;77.32;102288.31;5074558;28;19912;-35
2021/09/03 02:40:00;;;;;;;;;;;;;;;14.03;77.44;102293.16;5073903;28;19908;-35
2021/09/03 02:42:25;;;;;;;;;;;;;;;14.01;77.84;102289.00;5073444;28;19912;-35
2021/09/03 02:44:50;;;;;;;;;;;;;;;13.96;78.03;102276.06;5073232;28;19909;-35
2021/09/03 02:47:15;;;;;;;;;;;;;;;13.94;78.15;102282.75;5073946;28;19912;-35
2021/09/03 02:49:40;;;;;;;;;;;;;;;13.93;79.82;102279.22;5073774;28;19912;-35
2021/09/03 02:52:06;;;;;;;;;;;;;;;13.89;78.23;102275.25;5073783;28;19954;-35
2021/09/03 02:54:31;;;;;;;;;;;;;;;13.88;78.17;102274.44;5073476;28;19973;-35
2021/09/03 02:56:56;;;;;;;;;;;;;;;13.88;78.28;102270.88;5073477;28;19932;-35
2021/09/03 02:59:21;;;;;;;;;;;;;;;13.86;77.94;102262.13;5073203;28;19908;-35
2021/09/03 03:01:47;;;;;;;;;;;;;;;13.86;77.91;102259.41;5074211;28;20302;-35
2021/09/03 03:04:12;;;;;;;;;;;;;;;13.84;78.24;102254.16;5073094;28;19908;-35
2021/09/03 03:06:37;;;;;;;;;;;;;;;13.82;78.89;102256.28;5073487;28;19912;-35
2021/09/03 03:09:02;;;;;;;;;;;;;;;13.76;79.32;102250.84;5073295;28;20015;-35
2021/09/03 03:11:27;;;;;;;;;;;;;;;13.74;78.64;102258.41;5073121;28;19957;-35
2021/09/03 03:14:02;;;;;;;;;;;;;;;13.73;78.60;102251.31;5073322;28;19935;-36
2021/09/03 03:16:27;;;;;;;;;;;;;;;13.73;78.75;102252.16;5072952;28;19908;-35
2021/09/03 03:18:52;;;;;;;;;;;;;;;13.72;78.89;102250.47;5072994;28;19938;-35
2021/09/03 03:21:18;;;;;;;;;;;;;;;13.74;78.65;102244.81;5073464;28;19915;-35
2021/09/03 03:23:43;;;;;;;;;;;;;;;13.72;78.28;102245.03;5073244;28;19960;-35
2021/09/03 03:26:08;;;;;;;;;;;;;;;13.69;78.81;102244.63;5073520;28;19908;-35
2021/09/03 03:28:33;;;;;;;;;;;;;;;13.64;80.09;102248.84;5072864;28;19908;-35
2021/09/03 03:30:58;;;;;;;;;;;;;;;13.59;78.86;102248.66;5073254;28;19908;-35
2021/09/03 03:33:24;;;;;;;;;;;;;;;13.57;78.78;102242.63;5072934;28;19916;-35
2021/09/03 03:35:49;;;;;;;;;;;;;;;13.55;78.77;102241.97;5073596;28;19916;-35
2021/09/03 03:38:14;;;;;;;;;;;;;;;13.55;78.88;102241.16;5073096;28;19908;-35
2021/09/03 03:40:39;;;;;;;;;;;;;;;13.55;78.61;102235.72;5072852;28;19908;-35
2021/09/03 03:43:04;;;;;;;;;;;;;;;13.50;78.75;102233.66;5073048;28;19908;-35
2021/09/03 03:45:30;;;;;;;;;;;;;;;13.46;79.09;102235.13;5074059;28;19989;-35
2021/09/03 03:47:55;;;;;;;;;;;;;;;13.44;78.69;102230.97;5077595;28;19909;-35
2021/09/03 03:50:20;;;;;;;;;;;;;;;13.39;78.58;102228.91;5076946;28;19908;-35
2021/09/03 03:52:45;;;;;;;;;;;;;;;13.38;78.46;102232.69;5077202;28;19983;-35
2021/09/03 03:55:11;;;;;;;;;;;;;;;13.34;78.59;102221.41;5077591;28;20030;-35
2021/09/03 03:57:36;;;;;;;;;;;;;;;13.33;78.75;102227.06;5076807;28;19914;-35
2021/09/03 04:00:02;;;;;;;;;;;;;;;13.32;78.68;102233.50;5076789;28;19912;-35
2021/09/03 04:02:27;;;;;;;;;;;;;;;13.29;78.78;102234.78;5076742;28;19935;-35
2021/09/03 04:04:52;;;;;;;;;;;;;;;13.25;78.85;102225.41;5077154;28;19958;-35
2021/09/03 04:07:17;;;;;;;;;;;;;;;13.24;79.84;102228.34;5076641;28;20375;-35
2021/09/03 04:09:42;;;;;;;;;;;;;;;13.23;79.37;102229.41;5076606;28;19909;-35
2021/09/03 04:12:09;;;;;;;;;;;;;;;13.21;79.14;102228.72;5077369;28;19913;-35
2021/09/03 04:14:34;;;;;;;;;;;;;;;13.21;78.95;102226.00;5077045;28;19977;-35
2021/09/03 04:16:59;;;;;;;;;;;;;;;13.20;79.14;102224.34;5077066;28;20348;-35
2021/09/03 04:19:25;;;;;;;;;;;;;;;13.17;79.12;102231.03;5076330;28;19913;-35
2021/09/03 04:21:50;;;;;;;;;;;;;;;13.15;79.28;102231.25;5076623;28;19908;-35
2021/09/03 04:24:15;;;;;;;;;;;;;;;13.12;79.08;102228.13;5076717;28;19908;-35
2021/09/03 04:26:40;;;;;;;;;;;;;;;13.10;79.04;102224.81;5076333;28;19912;-35
2021/09/03 04:29:06;;;;;;;;;;;;;;;13.08;79.04;102216.06;5076531;28;19912;-35
2021/09/03 04:31:31;;;;;;;;;;;;;;;13.04;79.04;102209.38;5076330;28;19920;-35
2021/09/03 04:33:56;;;;;;;;;;;;;;;13.02;78.89;102223.16;5075883;28;19909;-35
2021/09/03 04:36:21;;;;;;;;;;;;;;;13.00;79.28;102217.09;5075826;28;20031;-35
2021/09/03 04:38:46;;;;;;;;;;;;;;;12.99;79.22;102214.63;5076149;28;19916;-35
2021/09/03 04:41:12;;;;;;;;;;;;;;;12.97;79.17;102212.09;5076583;28;20237;-35
2021/09/03 04:43:37;;;;;;;;;;;;;;;12.96;79.35;102213.16;5076245;28;19908;-35
2021/09/03 04:46:02;;;;;;;;;;;;;;;12.95;79.32;102211.47;5076014;28;19951;-35
2021/09/03 04:48:27;;;;;;;;;;;;;;;12.95;79.76;102216.09;5075696;28;19909;-35
2021/09/03 04:50:53;;;;;;;;;;;;;;;12.97;79.58;102213.97;5076201;28;19908;-35
2021/09/03 04:53:18;;;;;;;;;;;;;;;12.95;79.54;102214.19;5076592;28;19917;-35
2021/09/03 04:55:43;;;;;;;;;;;;;;;12.95;79.45;102216.09;5075836;28;19908;-35
2021/09/03 04:58:08;;;;;;;;;;;;;;;12.92;79.49;102209.19;5074680;28;19924;-35
2021/09/03 05:00:34;;;;;;;;;;;;;;;12.93;79.45;102208.13;5076239;28;19908;-35
2021/09/03 05:02:59;;;;;;;;;;;;;;;12.93;81.73;102210.84;5074140;28;19909;-35
2021/09/03 05:05:24;;;;;;;;;;;;;;;12.88;80.16;102206.09;5074216;28;19934;-35
2021/09/03 05:07:50;;;;;;;;;;;;;;;12.89;80.44;102210.47;5075825;28;19908;-35
2021/09/03 05:10:16;;;;;;;;;;;;;;;12.90;80.08;102216.72;5075704;28;19908;-35
2021/09/03 05:12:41;;;;;;;;;;;;;;;12.89;80.09;102212.34;5075859;28;20347;-35
2021/09/03 05:15:10;;;;;;;;;;;;;;;12.89;79.92;102209.63;5075622;28;19915;-35
2021/09/03 05:17:35;;;;;;;;;;;;;;;12.89;79.94;102210.47;5074951;28;19919;-35
2021/09/03 05:20:00;;;;;;;;;;;;;;;12.92;79.95;102211.91;5075258;28;19912;-35
2021/09/03 05:22:26;;;;;;;;;;;;;;;12.95;79.94;102210.66;5073900;28;19915;-35
2021/09/03 05:24:51;;;;;;;;;;;;;;;12.98;79.92;102202.06;5074855;28;19912;-35
2021/09/03 05:27:16;;;;;;;;;;;;;;;13.00;80.09;102208.97;5074944;28;19931;-35
2021/09/03 05:29:41;;;;;;;;;;;;;;;13.04;81.20;102212.91;5075307;28;19909;-35
2021/09/03 05:32:07;;;;;;;;;;;;;;;13.07;80.34;102212.47;5075084;28;20374;-35
2021/09/03 05:34:32;;;;;;;;;;;;;;;13.11;81.49;102205.56;5075066;28;20259;-35
2021/09/03 05:36:57;;;;;;;;;;;;;;;13.12;81.91;102211.84;5074585;28;20359;-35
2021/09/03 05:39:22;;;;;;;;;;;;;;;13.13;80.90;102208.94;5075245;28;19909;-35
2021/09/03 05:41:48;;;;;;;;;;;;;;;13.19;80.87;102211.81;5075387;28;19908;-35
2021/09/03 05:44:13;;;;;;;;;;;;;;;13.22;81.03;102222.28;5074920;28;19915;-35
2021/09/03 05:46:38;;;;;;;;;;;;;;;13.26;81.04;102221.63;5074729;28;19909;-35
2021/09/03 05:49:03;;;;;;;;;;;;;;;13.30;80.80;102222.03;5073383;28;20360;-35
2021/09/03 05:51:29;;;;;;;;;;;;;;;13.35;81.26;102222.22;5074489;28;19973;-35
2021/09/03 05:53:54;;;;;;;;;;;;;;;13.38;81.77;102227.25;5074615;28;19908;-35
2021/09/03 05:56:19;;;;;;;;;;;;;;;13.40;81.03;102225.97;5075081;28;19908;-35
2021/09/03 05:58:44;;;;;;;;;;;;;;;13.48;81.01;102224.91;5075196;28;19947;-35
2021/09/03 06:01:09;;;;;;;;;;;;;;;13.55;80.79;102228.41;5074992;28;19908;-35
2021/09/03 06:03:35;;;;;;;;;;;;;;;13.59;81.03;102223.38;5074119;28;20361;-35
2021/09/03 06:06:00;;;;;;;;;;;;;;;13.59;83.28;102226.91;5074143;28;19909;-35
2021/09/03 06:08:26;;;;;;;;;;;;;;;13.61;81.56;102229.41;5074274;28;19935;-35
2021/09/03 06:10:51;;;;;;;;;;;;;;;13.68;82.04;102226.66;5073409;28;19912;-35
2021/09/03 06:13:16;;;;;;;;;;;;;;;13.71;81.90;102220.78;5074481;28;19919;-35
2021/09/03 06:15:41;;;;;;;;;;;;;;;13.74;82.46;102232.06;5074323;28;19913;-35
2021/09/03 06:18:07;;;;;;;;;;;;;;;13.76;82.51;102229.97;5074362;28;19912;-35
2021/09/03 06:20:32;;;;;;;;;;;;;;;13.77;83.02;102228.09;5074359;28;19915;-35
2021/09/03 06:22:57;;;;;;;;;;;;;;;13.79;82.61;102223.25;5073902;28;20399;-35
2021/09/03 06:25:22;;;;;;;;;;;;;;;13.82;81.87;102223.66;5073758;28;19908;-35
2021/09/03 06:27:47;;;;;;;;;;;;;;;13.86;83.17;102227.59;5074049;28;19993;-35
2021/09/03 06:30:14;;;;;;;;;;;;;;;13.87;83.48;102228.44;5073719;28;19950;-35
2021/09/03 06:32:39;;;;;;;;;;;;;;;13.89;83.26;102224.44;5074685;28;19909;-35
2021/09/03 06:35:06;;;;;;;;;;;;;;;13.98;83.81;102233.16;5074216;28;19908;-35
2021/09/03 06:37:32;;;;;;;;;;;;;;;14.02;84.14;102228.13;5073876;28;20233;-35
2021/09/03 06:39:57;;;;;;;;;;;;;;;14.04;83.88;102232.28;5074555;28;19915;-35
2021/09/03 06:42:23;;;;;;;;;;;;;;;14.12;83.31;102234.72;5074316;28;19967;-35
2021/09/03 06:44:49;;;;;;;;;;;;;;;14.12;85.49;102229.28;5074281;28;20218;-35
2021/09/03 06:47:16;;;;;;;;;;;;;;;14.16;84.77;102225.09;5073572;28;19954;-35
2021/09/03 06:49:41;;;;;;;;;;;;;;;14.19;85.20;102223.78;5073858;28;20368;-35
2021/09/03 06:52:07;;;;;;;;;;;;;;;14.16;86.19;102229.69;5073420;28;20040;-35
2021/09/03 06:54:32;;;;;;;;;;;;;;;14.17;85.61;102231.34;5073602;28;19915;-35
2021/09/03 06:56:58;;;;;;;;;;;;;;;14.18;86.38;102228.41;5073515;28;19915;-35
2021/09/03 06:59:23;;;;;;;;;;;;;;;14.24;84.80;102226.69;5073563;28;20398;-35
2021/09/03 07:01:49;;;;;;;;;;;;;;;14.35;85.21;102227.88;5073627;28;20003;-35
2021/09/03 07:04:14;;;;;;;;;;;;;;;14.44;84.76;102226.50;5073566;28;19908;-35
2021/09/03 07:06:39;;;;;;;;;;;;;;;14.51;86.03;102227.31;5073493;28;19908;-35
2021/09/03 07:09:05;;;;;;;;;;;;;;;14.54;84.74;102221.44;5073408;28;19908;-35
2021/09/03 07:11:31;;;;;;;;;;;;;;;14.59;85.01;102224.31;5073585;28;20190;-35
2021/09/03 07:13:56;;;;;;;;;;;;;;;14.68;84.49;102233.00;5073854;28;19912;-35
2021/09/03 07:16:21;;;;;;;;;;;;;;;14.74;85.72;102225.84;5073310;28;20382;-35
2021/09/03 07:18:47;;;;;;;;;;;;;;;14.82;85.16;102233.72;5073323;28;19917;-35
2021/09/03 07:21:12;;;;;;;;;;;;;;;14.89;86.48;102232.59;5077251;28;19909;-35
2021/09/03 07:23:37;;;;;;;;;;;;;;;14.95;86.00;102230.84;5080000;28;19909;-35
2021/09/03 07:26:02;;;;;;;;;;;;;;;15.00;86.18;102230.19;5079685;28;20011;-35
2021/09/03 07:28:28;;;;;;;;;;;;;;;15.05;85.88;102222.16;5080155;28;19908;-35
2021/09/03 07:30:53;;;;;;;;;;;;;;;15.11;85.07;102211.19;5080223;28;19913;-35
2021/09/03 07:33:18;;;;;;;;;;;;;;;15.17;85.17;102215.69;5079881;28;19908;-35
2021/09/03 07:35:45;;;;;;;;;;;;;;;15.26;85.78;102218.97;5080427;28;19931;-35
2021/09/03 07:38:10;;;;;;;;;;;;;;;15.34;84.36;102215.09;5080237;28;19965;-35
2021/09/03 07:40:35;;;;;;;;;;;;;;;15.40;85.17;102211.44;5080355;28;20011;-35
2021/09/03 07:43:06;;;;;;;;;;;;;;;15.49;84.92;102217.41;5079767;28;20352;-35
2021/09/03 07:45:32;;;;;;;;;;;;;;;15.54;85.12;102221.13;5079747;28;19967;-35
2021/09/03 07:47:57;;;;;;;;;;;;;;;15.61;85.14;102219.13;5079834;28;19908;-35
2021/09/03 07:50:22;;;;;;;;;;;;;;;15.71;84.66;102218.59;5079423;28;19982;-35
2021/09/03 07:52:47;;;;;;;;;;;;;;;15.82;84.84;102215.09;5079752;28;19915;-35
2021/09/03 07:55:13;;;;;;;;;;;;;;;15.88;84.56;102219.59;5080299;28;19912;-35
2021/09/03 07:57:38;;;;;;;;;;;;;;;15.93;83.96;102214.28;5079796;28;20337;-35
2021/09/03 08:00:03;;;;;;;;;;;;;;;15.98;84.15;102216.31;5079520;28;19909;-35
2021/09/03 08:02:28;;;;;;;;;;;;;;;15.97;85.09;102214.66;5079370;28;19915;-35
2021/09/03 08:04:54;;;;;;;;;;;;;;;16.04;84.55;102204.44;5079592;28;20405;-35
2021/09/03 08:07:19;;;;;;;;;;;;;;;16.16;84.55;102205.31;5080050;28;19916;-35
2021/09/03 08:09:44;;;;;;;;;;;;;;;16.26;84.53;102203.91;5079501;28;20386;-35
2021/09/03 08:12:09;;;;;;;;;;;;;;;16.33;83.59;102201.88;5079808;28;19922;-35
2021/09/03 08:14:35;;;;;;;;;;;;;;;16.41;83.97;102205.09;5079699;28;20003;-35
2021/09/03 08:17:00;;;;;;;;;;;;;;;16.47;83.77;102200.59;5079501;28;20250;-35
2021/09/03 08:19:26;;;;;;;;;;;;;;;16.53;83.96;102199.63;5079905;28;19908;-35
2021/09/03 08:21:51;;;;;;;;;;;;;;;16.61;84.26;102202.00;5079810;28;20242;-35
2021/09/03 08:24:16;;;;;;;;;;;;;;;16.71;83.49;102194.06;5079864;28;19908;-35
2021/09/03 08:26:42;;;;;;;;;;;;;;;16.78;82.25;102201.31;5079632;28;20330;-35
2021/09/03 08:29:08;;;;;;;;;;;;;;;16.84;82.41;102197.63;5078987;28;19998;-35
2021/09/03 08:31:33;;;;;;;;;;;;;;;16.91;82.03;102192.84;5079159;28;20316;-35
2021/09/03 08:33:58;;;;;;;;;;;;;;;16.99;82.28;102195.22;5075956;28;20260;-35
2021/09/03 08:36:24;;;;;;;;;;;;;;;17.07;81.61;102192.09;5076905;28;20015;-35
2021/09/03 08:38:49;;;;;;;;;;;;;;;17.18;81.34;102185.78;5075792;28;20015;-35
2021/09/03 08:41:15;;;;;;;;;;;;;;;17.30;80.76;102188.47;5076420;28;19909;-35
2021/09/03 08:43:40;;;;;;;;;;;;;;;17.42;80.93;102181.06;5075613;28;19908;-35
2021/09/03 08:46:06;;;;;;;;;;;;;;;17.56;80.46;102188.94;5076193;28;20376;-35
2021/09/03 08:48:31;;;;;;;;;;;;;;;17.64;79.42;102191.31;5075970;28;20383;-35
2021/09/03 08:50:57;;;;;;;;;;;;;;;17.72;79.73;102193.66;5075866;28;19909;-35
2021/09/03 08:53:22;;;;;;;;;;;;;;;17.83;78.95;102191.94;5075759;28;19912;-35
2021/09/03 08:55:49;;;;;;;;;;;;;;;17.94;78.84;102193.78;5075838;28;20311;-35
2021/09/03 08:58:15;;;;;;;;;;;;;;;17.91;77.14;102197.00;5075721;28;19999;-35
2021/09/03 09:00:41;;;;;;;;;;;;;;;18.00;78.35;102201.81;5076257;28;19967;-35
2021/09/03 09:03:09;;;;;;;;;;;;;;;18.12;77.53;102198.19;5075902;28;19908;-35
2021/09/03 09:05:50;;;;;;;;;;;;;;;18.23;78.10;102205.47;5076117;28;19962;-35
2021/09/03 09:08:16;;;;;;;;;;;;;;;18.43;78.32;102202.22;5075752;28;19912;-35
2021/09/03 09:10:48;;;;;;;;;;;;;;;18.59;78.01;102204.09;5075777;28;19912;-36
2021/09/03 09:13:15;;;;;;;;;;;;;;;18.66;76.32;102203.94;5075351;28;20263;-35
2021/09/03 09:15:40;;;;;;;;;;;;;;;18.70;75.96;102205.13;5075578;28;19909;-35
2021/09/03 09:18:05;;;;;;;;;;;;;;;18.77;75.87;102194.81;5075420;28;19908;-35
2021/09/03 09:20:31;;;;;;;;;;;;;;;18.84;76.12;102200.09;5075715;28;19930;-35
2021/09/03 09:23:04;;;;;;;;;;;;;;;18.96;75.73;102204.38;5075994;28;19912;-35
2021/09/03 09:25:31;;;;;;;;;;;;;;;19.09;74.64;102199.63;5075472;28;19908;-35
2021/09/03 09:28:14;;;;;;;;;;;;;;;19.22;74.48;102199.22;5075259;28;19908;-35
2021/09/03 09:30:40;;;;;;;;;;;;;;;19.29;73.08;102195.22;5074889;28;19908;-35
2021/09/03 09:33:15;;;;;;;;;;;;;;;19.37;73.81;102198.56;5075218;28;19908;-36
2021/09/03 09:35:45;;;;;;;;;;;;;;;19.41;71.57;102191.47;5075088;28;19915;-36
2021/09/03 09:38:10;;;;;;;;;;;;;;;19.45;72.41;102185.22;5074894;28;19908;-36
2021/09/03 09:40:49;;;;;;;;;;;;;;;19.60;72.95;102181.00;5075074;28;19953;-35
2021/09/03 09:43:23;;;;;;;;;;;;;;;19.78;73.86;102183.41;5074749;28;19946;-36
2021/09/03 09:46:07;;;;;;;;;;;;;;;19.92;71.74;102183.81;5074565;28;20314;-36
2021/09/03 09:48:32;;;;;;;;;;;;;;;20.08;72.68;102180.06;5075079;28;19909;-35
2021/09/03 09:50:57;;;;;;;;;;;;;;;20.22;72.93;102162.06;5075033;28;20371;-35
2021/09/03 09:53:22;;;;;;;;;;;;;;;20.40;72.97;102163.56;5093975;28;19923;-36
2021/09/03 09:55:48;;;;;;;;;;;;;;;20.56;71.54;102159.84;5094699;28;19915;-35
2021/09/03 09:58:14;;;;;;;;;;;;;;;20.63;69.97;102158.78;5094622;28;19908;-36
2021/09/03 10:00:40;;;;;;;;;;;;;;;20.74;70.70;102158.56;5095087;28;20004;-36
2021/09/03 10:03:05;;;;;;;;;;;;;;;20.87;70.77;102156.41;5095079;28;19908;-36
2021/09/03 10:05:31;;;;;;;;;;;;;;;21.01;68.38;102155.66;5094513;28;19912;-36
2021/09/03 10:07:58;;;;;;;;;;;;;;;21.10;66.30;102161.47;5095368;28;19947;-36
2021/09/03 10:10:23;;;;;;;;;;;;;;;21.15;65.55;102158.72;5094702;28;19915;-36
2021/09/03 10:12:49;;;;;;;;;;;;;;;21.17;67.77;102162.03;5095135;28;20232;-36
2021/09/03 10:15:14;;;;;;;;;;;;;;;21.22;64.81;102156.53;5094937;28;20020;-36
2021/09/03 10:17:40;;;;;;;;;;;;;;;21.32;66.05;102153.84;5094352;28;19908;-36
2021/09/03 10:20:06;;;;;;;;;;;;;;;21.45;66.64;102160.75;5094103;28;19951;-36
2021/09/03 10:22:42;;;;;;;;;;;;;;;21.52;65.76;102150.31;5094813;28;19954;-36
2021/09/03 10:25:08;;;;;;;;;;;;;;;21.63;66.25;102142.06;5094239;28;19912;-36
2021/09/03 10:27:33;;;;;;;;;;;;;;;21.72;67.00;102138.50;5094829;28;19968;-41
2021/09/03 10:30:11;;;;;;;;;;;;;;;21.84;65.16;102140.97;5094180;28;20298;-36
2021/09/03 10:32:36;;;;;;;;;;;;;;;21.89;64.03;102131.88;5094109;28;19938;-36
2021/09/03 10:35:12;;;;;;;;;;;;;;;21.97;64.47;102128.59;5094255;28;19908;-36
2021/09/03 10:37:37;;;;;;;;;;;;;;;21.84;62.36;102128.03;5094040;28;19908;-36
2021/09/03 10:40:06;;;;;;;;;;;;;;;21.91;64.31;102127.78;5094008;28;19998;-36
2021/09/03 10:42:42;;;;;;;;;;;;;;;22.06;63.59;102130.50;5093851;28;19911;-36
2021/09/03 10:45:09;;;;;;;;;;;;;;;22.12;63.50;102130.53;5093754;28;19907;-36
2021/09/03 10:47:39;;;;;;;;;;;;;;;22.09;62.36;102131.88;5094045;28;20331;-36
2021/09/03 10:50:11;;;;;;;;;;;;;;;22.20;63.36;102127.19;5093729;28;20315;-36
2021/09/03 10:52:37;;;;;;;;;;;;;;;22.35;63.27;102119.75;5093972;28;19908;-36
2021/09/03 10:55:06;;;;;;;;;;;;;;;22.58;62.79;102122.97;5093379;28;20375;-36
2021/09/03 10:57:31;;;;;;;;;;;;;;;22.66;62.25;102116.06;5093560;28;19926;-36
2021/09/03 11:00:15;;;;;;;;;;;;;;;22.45;59.28;102110.63;5093657;28;19912;-36
2021/09/03 11:02:41;;;;;;;;;;;;;;;22.43;60.81;102110.06;5093340;28;20324;-36
2021/09/03 11:05:10;;;;;;;;;;;;;;;22.52;59.40;102099.28;5093307;28;19916;-35
2021/09/03 11:07:45;;;;;;;;;;;;;;;22.62;60.82;102100.06;5094084;28;20248;-36
2021/09/03 11:10:17;;;;;;;;;;;;;;;22.78;61.42;102094.47;5093516;28;19915;-36
2021/09/03 11:12:52;;;;;;;;;;;;;;;22.78;58.08;102091.72;5093912;28;19998;-36
2021/09/03 11:15:18;;;;;;;;;;;;;;;22.88;58.98;102086.16;5093823;28;20457;-36
2021/09/03 11:17:44;;;;;;;;;;;;;;;23.02;57.50;102081.69;5093326;28;19908;-36
2021/09/03 11:20:09;;;;;;;;;;;;;;;23.01;58.70;102079.22;5094216;28;19953;-36
2021/09/03 11:22:37;;;;;;;;;;;;;;;23.06;60.01;102079.19;5093591;28;19912;-36
2021/09/03 11:25:03;;;;;;;;;;;;;;;23.09;58.39;102071.19;5093341;28;20249;-36
2021/09/03 11:27:30;;;;;;;;;;;;;;;23.15;58.82;102060.13;5093505;28;20371;-36
2021/09/03 11:29:57;;;;;;;;;;;;;;;23.23;58.16;102070.53;5093175;28;19931;-36
2021/09/03 11:32:24;;;;;;;;;;;;;;;23.26;57.92;102065.25;5093167;28;19908;-36
2021/09/03 11:34:50;;;;;;;;;;;;;;;23.21;56.12;102065.31;5093197;28;20306;-36
2021/09/03 11:37:17;;;;;;;;;;;;;;;23.12;57.21;102065.06;5093087;28;19977;-36
2021/09/03 11:39:42;;;;;;;;;;;;;;;23.10;56.06;102067.31;5093588;28;19915;-36
2021/09/03 11:42:16;;;;;;;;;;;;;;;23.19;56.63;102058.44;5092821;28;19908;-36
2021/09/03 11:44:52;;;;;;;;;;;;;;;23.29;56.72;102058.34;5093244;28;19911;-36
2021/09/03 11:47:24;;;;;;;;;;;;;;;23.43;57.49;102059.34;5093364;28;19908;-36
2021/09/03 11:49:50;;;;;;;;;;;;;;;23.20;55.44;102055.38;5093047;28;19908;-36
2021/09/03 11:52:16;;;;;;;;;;;;;;;23.10;54.35;102049.94;5093052;28;20228;-36
2021/09/03 11:54:48;;;;;;;;;;;;;;;23.22;56.58;102055.09;5093084;28;19922;-36
2021/09/03 11:57:13;;;;;;;;;;;;;;;23.30;56.33;102049.78;5093347;28;19908;-36
2021/09/03 11:59:55;;;;;;;;;;;;;;;23.53;57.80;102041.88;5093368;28;19908;-36
2021/09/03 12:02:21;;;;;;;;;;;;;;;23.77;54.47;102042.78;5093287;28;19926;-36
2021/09/03 12:04:47;;;;;;;;;;;;;;;23.79;54.60;102040.56;5092607;28;19915;-36
2021/09/03 12:07:20;;;;;;;;;;;;;;;23.59;54.40;102033.25;5093260;28;19994;-36
2021/09/03 12:09:45;;;;;;;;;;;;;;;23.68;55.70;102024.38;5096454;28;19994;-36
2021/09/03 12:12:10;;;;;;;;;;;;;;;23.89;55.98;102031.34;5097105;28;19959;-36
2021/09/03 12:14:36;;;;;;;;;;;;;;;23.87;53.83;102030.81;5097357;28;19908;-36
2021/09/03 12:17:01;;;;;;;;;;;;;;;23.84;54.55;102026.69;5096698;28;19916;-36
2021/09/03 12:19:27;;;;;;;;;;;;;;;23.90;54.79;102028.28;5096390;28;19908;-36
2021/09/03 12:21:52;;;;;;;;;;;;;;;23.96;56.17;102023.53;5096868;28;19908;-36
2021/09/03 12:24:17;;;;;;;;;;;;;;;24.15;56.86;102023.59;5096515;28;19961;-36
2021/09/03 12:26:48;;;;;;;;;;;;;;;24.30;54.64;102019.81;5096521;28;19915;-36
2021/09/03 12:29:14;;;;;;;;;;;;;;;24.37;54.80;102018.38;5096315;28;20018;-36
2021/09/03 12:31:47;;;;;;;;;;;;;;;24.50;53.62;102022.38;5097178;28;19915;-36